createdAt,value
2023-02-13T00:00:17.187Z,1.09
2023-02-13T00:03:23.762Z,1.22
2023-02-13T00:06:29.917Z,1.28
2023-02-13T00:09:39.117Z,1.34
2023-02-13T00:12:44.923Z,1.41
2023-02-13T00:15:59.621Z,1.42
2023-02-13T00:19:05.040Z,1.41
2023-02-13T00:22:11.407Z,1.35
2023-02-13T00:25:19.872Z,1.38
2023-02-13T00:28:26.460Z,1.37
2023-02-13T00:31:32.104Z,1.30
2023-02-13T00:34:39.442Z,1.26
2023-02-13T00:37:45.156Z,1.21
2023-02-13T00:40:54.170Z,1.23
2023-02-13T00:43:59.727Z,1.24
2023-02-13T00:47:06.007Z,1.20
2023-02-13T00:50:12.163Z,1.22
2023-02-13T00:53:18.687Z,1.25
2023-02-13T00:56:28.127Z,1.28
2023-02-13T00:59:34.463Z,1.29
2023-02-13T01:02:40.582Z,1.36
2023-02-13T01:05:48.100Z,1.42
2023-02-13T01:08:53.539Z,1.42
2023-02-13T01:12:02.824Z,1.44
2023-02-13T01:15:11.389Z,1.42
2023-02-13T01:18:23.492Z,1.42
2023-02-13T01:21:28.818Z,1.47
2023-02-13T01:24:35.296Z,1.46
2023-02-13T01:27:43.877Z,1.44
2023-02-13T01:30:57.518Z,1.42
2023-02-13T01:34:03.454Z,1.39
2023-02-13T01:37:09.930Z,1.34
2023-02-13T01:40:17.505Z,1.32
2023-02-13T01:43:27.511Z,1.33
2023-02-13T01:46:40.372Z,1.36
2023-02-13T01:49:51.701Z,1.34
2023-02-13T01:53:05.630Z,1.25
2023-02-13T01:56:24.532Z,1.21
2023-02-13T01:59:43.864Z,1.13
2023-02-13T02:03:01.379Z,0.99
2023-02-13T02:06:12.829Z,0.99
2023-02-13T02:09:26.698Z,0.97
2023-02-13T02:12:45.202Z,0.92
2023-02-13T02:15:55.423Z,0.78
2023-02-13T02:19:01.013Z,0.77
2023-02-13T02:22:56.017Z,0.74
2023-02-13T02:26:54.320Z,0.67
2023-02-13T02:30:56.708Z,0.69
2023-02-13T02:34:25.676Z,0.53
2023-02-13T02:38:00.433Z,0.49
2023-02-13T02:41:41.789Z,0.47
2023-02-13T02:45:07.415Z,0.44
2023-02-13T02:48:45.461Z,0.38
2023-02-13T02:52:09.156Z,0.19
2023-02-13T02:55:34.651Z,0.37
2023-02-13T02:59:05.156Z,0.24
2023-02-13T03:02:32.482Z,0.13
2023-02-13T03:06:22.124Z,0.23
2023-02-13T03:09:54.643Z,0.23
2023-02-13T03:13:24.947Z,0.06
2023-02-13T03:16:46.351Z,0.10
2023-02-13T03:20:36.032Z,0.12
2023-02-13T03:24:01.045Z,0.08
2023-02-13T03:27:40.195Z,-0.01
2023-02-13T03:31:00.791Z,-0.00
2023-02-13T03:34:14.786Z,0.08
2023-02-13T03:37:45.885Z,0.13
2023-02-13T03:41:16.393Z,0.23
2023-02-13T03:44:36.315Z,0.22
2023-02-13T03:47:46.980Z,0.21
2023-02-13T03:50:50.194Z,0.16
2023-02-13T03:54:04.220Z,0.16
2023-02-13T03:57:26.228Z,0.22
2023-02-13T04:00:45.718Z,0.23
2023-02-13T04:04:00.557Z,0.20
2023-02-13T04:07:29.677Z,0.22
2023-02-13T04:10:45.235Z,0.16
2023-02-13T04:14:01.152Z,0.24
2023-02-13T04:17:17.141Z,0.32
2023-02-13T04:20:24.056Z,0.32
2023-02-13T04:23:29.607Z,0.28
2023-02-13T04:26:41.221Z,0.28
2023-02-13T04:29:47.061Z,0.29
2023-02-13T04:32:56.099Z,0.36
2023-02-13T04:36:01.479Z,0.33
2023-02-13T04:39:07.752Z,0.31
2023-02-13T04:42:13.254Z,0.34
2023-02-13T04:45:20.058Z,0.37
2023-02-13T04:48:28.461Z,0.27
2023-02-13T04:51:34.700Z,0.31
2023-02-13T04:54:40.072Z,0.30
2023-02-13T04:57:46.709Z,0.41
2023-02-13T05:00:52.089Z,0.48
2023-02-13T05:04:01.107Z,0.54
2023-02-13T05:07:06.570Z,0.51
2023-02-13T05:10:14.644Z,0.48
2023-02-13T05:13:21.821Z,0.49
2023-02-13T05:16:28.200Z,0.54
2023-02-13T05:19:36.293Z,0.54
2023-02-13T05:23:03.936Z,0.52
2023-02-13T05:26:09.261Z,0.57
2023-02-13T05:29:24.392Z,0.48
2023-02-13T05:32:29.900Z,0.46
2023-02-13T05:35:38.966Z,0.52
2023-02-13T05:38:44.502Z,0.60
2023-02-13T05:41:52.201Z,0.64
2023-02-13T05:44:57.593Z,0.68
2023-02-13T05:48:03.849Z,0.69
2023-02-13T05:51:12.475Z,0.76
2023-02-13T05:54:18.913Z,0.77
2023-02-13T05:57:24.294Z,0.78
2023-02-13T06:00:30.927Z,0.80
2023-02-13T06:03:37.746Z,0.86
2023-02-13T06:06:46.789Z,0.84
2023-02-13T06:09:52.276Z,0.85
2023-02-13T06:12:58.527Z,0.81
2023-02-13T06:16:04.387Z,0.91
2023-02-13T06:19:11.253Z,0.91
2023-02-13T06:22:19.382Z,0.88
2023-02-13T06:25:26.237Z,0.85
2023-02-13T06:28:31.925Z,0.91
2023-02-13T06:31:38.650Z,0.86
2023-02-13T06:34:44.061Z,0.85
2023-02-13T06:37:53.262Z,0.73
2023-02-13T06:41:04.922Z,0.74
2023-02-13T06:44:11.277Z,0.76
2023-02-13T06:47:16.697Z,0.76
2023-02-13T06:50:23.272Z,0.71
2023-02-13T06:53:31.716Z,0.71
2023-02-13T06:56:38.041Z,0.61
2023-02-13T06:59:43.373Z,0.66
2023-02-13T07:02:51.255Z,0.70
2023-02-13T07:05:56.777Z,0.65
2023-02-13T07:09:07.665Z,0.74
2023-02-13T07:12:13.124Z,0.75
2023-02-13T07:15:19.861Z,0.76
2023-02-13T07:18:25.259Z,0.87
2023-02-13T07:21:31.606Z,0.86
2023-02-13T07:24:39.873Z,0.77
2023-02-13T07:27:46.183Z,0.88
2023-02-13T07:30:51.657Z,0.85
2023-02-13T07:34:03.685Z,0.78
2023-02-13T07:37:09.036Z,0.83
2023-02-13T07:40:18.424Z,0.96
2023-02-13T07:43:25.202Z,1.01
2023-02-13T07:46:31.462Z,1.16
2023-02-13T07:49:37.401Z,1.33
2023-02-13T07:52:43.736Z,1.50
2023-02-13T07:55:51.919Z,1.52
2023-02-13T07:58:58.787Z,1.47
2023-02-13T08:02:04.236Z,1.52
2023-02-13T08:05:11.974Z,1.60
2023-02-13T08:08:17.359Z,1.66
2023-02-13T08:11:52.482Z,1.67
2023-02-13T08:14:57.875Z,1.81
2023-02-13T08:18:04.188Z,1.93
2023-02-13T08:21:09.796Z,2.03
2023-02-13T08:24:16.977Z,2.03
2023-02-13T08:27:25.477Z,1.99
2023-02-13T08:30:32.340Z,2.07
2023-02-13T08:33:37.678Z,2.14
2023-02-13T08:36:43.940Z,2.14
2023-02-13T08:39:49.322Z,2.09
2023-02-13T08:43:04.172Z,2.13
2023-02-13T08:46:09.687Z,2.27
2023-02-13T08:49:16.019Z,2.38
2023-02-13T08:52:22.030Z,2.48
2023-02-13T08:55:28.332Z,2.49
2023-02-13T08:58:36.845Z,2.60
2023-02-13T09:01:43.434Z,2.60
2023-02-13T09:04:48.829Z,2.61
2023-02-13T09:07:55.028Z,2.69
2023-02-13T09:11:06.677Z,2.16
2023-02-13T09:14:15.773Z,2.57
2023-02-13T09:17:21.186Z,2.45
2023-02-13T09:20:28.484Z,2.39
2023-02-13T09:23:40.067Z,2.49
2023-02-13T09:26:46.276Z,2.56
2023-02-13T09:29:54.470Z,2.41
2023-02-13T09:33:02.271Z,2.41
2023-02-13T09:36:09.338Z,2.43
2023-02-13T09:39:15.541Z,2.26
2023-02-13T09:42:27.392Z,2.35
2023-02-13T09:45:37.590Z,2.43
2023-02-13T09:48:49.932Z,2.53
2023-02-13T09:52:01.261Z,2.37
2023-02-13T09:55:17.168Z,2.35
2023-02-13T09:58:43.350Z,2.35
2023-02-13T10:01:59.235Z,2.28
2023-02-13T10:05:26.788Z,2.35
2023-02-13T10:08:57.825Z,2.45
2023-02-13T10:12:50.817Z,2.59
2023-02-13T10:16:11.834Z,2.61
2023-02-13T10:19:39.202Z,2.47
2023-02-13T10:22:55.047Z,2.55
2023-02-13T10:26:06.866Z,2.52
2023-02-13T10:29:41.441Z,2.50
2023-02-13T10:33:14.270Z,2.77
2023-02-13T10:36:30.600Z,2.72
2023-02-13T10:39:36.916Z,2.83
2023-02-13T10:42:49.638Z,2.85
2023-02-13T10:46:15.856Z,2.80
2023-02-13T10:49:49.591Z,2.89
2023-02-13T10:53:17.404Z,2.83
2023-02-13T10:56:34.180Z,2.86
2023-02-13T11:00:08.498Z,2.85
2023-02-13T11:03:23.150Z,2.78
2023-02-13T11:06:31.052Z,2.85
2023-02-13T11:09:47.165Z,2.80
2023-02-13T11:12:55.076Z,2.92
2023-02-13T11:16:06.279Z,2.95
2023-02-13T11:19:23.005Z,2.66
2023-02-13T11:22:39.517Z,3.19
2023-02-13T11:26:00.590Z,3.22
2023-02-13T11:29:21.842Z,3.33
2023-02-13T11:32:30.885Z,3.45
2023-02-13T11:35:39.862Z,3.43
2023-02-13T11:38:47.120Z,3.44
2023-02-13T11:41:56.097Z,3.50
2023-02-13T11:45:07.376Z,3.50
2023-02-13T11:48:23.757Z,3.47
2023-02-13T11:51:42.009Z,3.39
2023-02-13T11:54:58.050Z,3.27
2023-02-13T11:58:27.787Z,3.25
2023-02-13T12:01:33.273Z,3.20
2023-02-13T12:04:39.757Z,3.23
2023-02-13T12:07:47.405Z,3.23
2023-02-13T12:10:54.195Z,3.12
2023-02-13T12:14:03.424Z,3.13
2023-02-13T12:17:30.667Z,3.13
2023-02-13T12:20:55.955Z,3.11
2023-02-13T12:24:22.437Z,3.09
2023-02-13T12:27:45.936Z,3.05
2023-02-13T12:31:26.104Z,2.48
2023-02-13T12:35:45.729Z,3.00
2023-02-13T12:39:21.098Z,2.91
2023-02-13T12:42:44.296Z,2.93
2023-02-13T12:46:09.573Z,2.91
2023-02-13T12:49:45.609Z,2.85
2023-02-13T12:53:48.359Z,2.77
2023-02-13T12:57:23.798Z,2.65
2023-02-13T13:00:51.076Z,2.77
2023-02-13T13:04:21.146Z,2.82
2023-02-13T13:08:00.480Z,2.69
2023-02-13T13:11:33.368Z,2.94
2023-02-13T13:14:56.399Z,2.93
2023-02-13T13:18:20.946Z,2.79
2023-02-13T13:21:44.824Z,2.79
2023-02-13T13:25:14.109Z,2.78
2023-02-13T13:28:27.470Z,2.73
2023-02-13T13:31:39.689Z,2.64
2023-02-13T13:34:46.864Z,2.54
2023-02-13T13:38:14.761Z,2.62
2023-02-13T13:41:35.615Z,2.59
2023-02-13T13:45:13.202Z,2.57
2023-02-13T13:49:03.567Z,2.41
2023-02-13T13:52:29.108Z,2.48
2023-02-13T13:56:11.668Z,2.30
2023-02-13T13:59:21.568Z,2.36
2023-02-13T14:02:44.782Z,2.44
2023-02-13T14:06:13.704Z,2.52
2023-02-13T14:09:44.045Z,2.50
2023-02-13T14:13:04.283Z,2.48
2023-02-13T14:16:15.250Z,2.43
2023-02-13T14:19:33.087Z,2.59
2023-02-13T14:22:42.266Z,2.52
2023-02-13T14:25:48.895Z,1.20
2023-02-13T14:29:28.644Z,2.41
2023-02-13T14:32:37.916Z,2.37
2023-02-13T14:35:44.209Z,2.37
2023-02-13T14:39:00.195Z,2.45
2023-02-13T14:42:24.710Z,2.45
2023-02-13T14:45:44.140Z,2.36
2023-02-13T14:49:01.842Z,2.46
2023-02-13T14:52:18.610Z,2.47
2023-02-13T14:55:38.954Z,2.37
2023-02-13T14:58:56.062Z,2.31
2023-02-13T15:02:21.753Z,2.32
2023-02-13T15:05:37.376Z,2.31
2023-02-13T15:08:52.330Z,2.35
2023-02-13T15:11:57.986Z,2.36
2023-02-13T15:15:07.517Z,2.08
2023-02-13T15:18:28.938Z,2.27
2023-02-13T15:21:37.380Z,2.18
2023-02-13T15:24:51.361Z,2.14
2023-02-13T15:27:59.957Z,2.05
2023-02-13T15:31:09.680Z,1.95
2023-02-13T15:34:37.456Z,1.93
2023-02-13T15:37:42.835Z,1.67
2023-02-13T15:40:49.301Z,1.65
2023-02-13T15:44:00.947Z,1.68
2023-02-13T15:47:12.009Z,1.67
2023-02-13T15:50:36.148Z,1.62
2023-02-13T15:53:54.518Z,1.67
2023-02-13T15:57:04.647Z,1.64
2023-02-13T16:00:26.657Z,1.60
2023-02-13T16:03:35.429Z,1.55
2023-02-13T16:06:47.189Z,1.43
2023-02-13T16:09:53.924Z,1.41
2023-02-13T16:13:05.904Z,1.44
2023-02-13T16:16:14.373Z,1.42
2023-02-13T16:19:36.814Z,1.38
2023-02-13T16:22:50.491Z,1.31
2023-02-13T16:26:05.730Z,1.27
2023-02-13T16:29:14.837Z,1.29
2023-02-13T16:32:34.278Z,1.14
2023-02-13T16:35:42.905Z,1.19
2023-02-13T16:38:53.379Z,1.26
2023-02-13T16:41:59.506Z,1.33
2023-02-13T16:45:25.657Z,1.28
2023-02-13T16:48:31.130Z,1.33
2023-02-13T16:51:44.029Z,1.35
2023-02-13T16:54:59.306Z,1.42
2023-02-13T16:58:08.860Z,1.34
2023-02-13T17:01:20.718Z,1.37
2023-02-13T17:04:28.745Z,1.29
2023-02-13T17:07:39.037Z,1.28
2023-02-13T17:11:07.131Z,1.07
2023-02-13T17:14:12.504Z,1.22
2023-02-13T17:17:22.870Z,1.22
2023-02-13T17:20:32.001Z,1.27
2023-02-13T17:23:38.386Z,1.35
2023-02-13T17:26:46.705Z,1.34
2023-02-13T17:29:53.124Z,1.37
2023-02-13T17:33:05.414Z,1.38
2023-02-13T17:36:16.152Z,1.43
2023-02-13T17:39:21.494Z,1.27
2023-02-13T17:42:33.326Z,1.29
2023-02-13T17:45:39.704Z,1.06
2023-02-13T17:48:45.997Z,1.20
2023-02-13T17:51:51.471Z,1.25
2023-02-13T17:54:57.909Z,1.27
2023-02-13T17:58:06.760Z,1.27
2023-02-13T18:01:14.611Z,1.27
2023-02-13T18:04:20.256Z,1.44
2023-02-13T18:07:26.505Z,1.42
2023-02-13T18:10:35.383Z,1.44
2023-02-13T18:13:48.239Z,1.36
2023-02-13T18:16:53.637Z,1.46
2023-02-13T18:20:00.477Z,1.46
2023-02-13T18:23:07.337Z,1.07
2023-02-13T18:26:14.199Z,1.44
2023-02-13T18:29:22.339Z,1.45
2023-02-13T18:32:29.417Z,1.56
2023-02-13T18:35:37.587Z,1.60
2023-02-13T18:38:43.914Z,1.55
2023-02-13T18:41:50.234Z,1.60
2023-02-13T18:44:59.485Z,1.61
2023-02-13T18:48:05.432Z,1.50
2023-02-13T18:51:11.993Z,1.49
2023-02-13T18:54:18.126Z,1.52
2023-02-13T18:57:24.478Z,1.43
2023-02-13T19:00:33.155Z,1.41
2023-02-13T19:03:40.547Z,1.49
2023-02-13T19:06:47.884Z,1.50
2023-02-13T19:09:56.485Z,1.21
2023-02-13T19:13:02.133Z,1.62
2023-02-13T19:16:15.800Z,1.67
2023-02-13T19:19:21.290Z,1.77
2023-02-13T19:22:27.556Z,1.85
2023-02-13T19:25:34.137Z,1.86
2023-02-13T19:28:40.924Z,1.87
2023-02-13T19:31:49.249Z,1.93
2023-02-13T19:34:55.725Z,2.00
2023-02-13T19:38:01.163Z,1.97
2023-02-13T19:41:08.839Z,1.96
2023-02-13T19:44:14.733Z,1.96
2023-02-13T19:47:23.749Z,1.87
2023-02-13T19:50:29.171Z,1.94
2023-02-13T19:53:35.410Z,1.90
2023-02-13T19:56:43.910Z,1.95
2023-02-13T19:59:51.046Z,2.00
2023-02-13T20:03:04.399Z,2.07
2023-02-13T20:06:14.760Z,2.18
2023-02-13T20:09:20.300Z,2.23
2023-02-13T20:12:26.532Z,2.26
2023-02-13T20:15:32.540Z,2.31
2023-02-13T20:18:42.998Z,2.32
2023-02-13T20:21:48.459Z,2.28
2023-02-13T20:24:54.764Z,2.28
2023-02-13T20:28:00.299Z,2.32
2023-02-13T20:31:13.720Z,2.36
2023-02-13T20:34:22.065Z,2.40
2023-02-13T20:37:28.371Z,2.42
2023-02-13T20:40:33.853Z,2.45
2023-02-13T20:43:40.779Z,2.43
2023-02-13T20:46:46.493Z,2.39
2023-02-13T20:49:55.634Z,2.43
2023-02-13T20:53:01.865Z,2.40
2023-02-13T20:56:11.361Z,2.34
2023-02-13T20:59:16.763Z,2.34
2023-02-13T21:02:23.256Z,2.31
2023-02-13T21:05:31.402Z,2.29
2023-02-13T21:08:37.954Z,2.32
2023-02-13T21:11:47.654Z,2.33
2023-02-13T21:14:54.102Z,2.34
2023-02-13T21:18:02.178Z,2.34
2023-02-13T21:21:14.010Z,2.26
2023-02-13T21:24:23.045Z,2.29
2023-02-13T21:27:29.449Z,2.33
2023-02-13T21:30:34.866Z,2.37
2023-02-13T21:33:41.489Z,2.42
2023-02-13T21:36:50.286Z,2.41
2023-02-13T21:39:56.547Z,2.40
2023-02-13T21:43:01.957Z,2.41
2023-02-13T21:46:13.161Z,2.34
2023-02-13T21:49:22.351Z,2.35
2023-02-13T21:52:31.385Z,2.38
2023-02-13T21:55:37.153Z,2.33
2023-02-13T21:58:46.569Z,2.28
2023-02-13T22:01:58.513Z,2.21
2023-02-13T22:05:04.841Z,2.20
2023-02-13T22:08:14.230Z,2.15
2023-02-13T22:11:29.127Z,2.07
2023-02-13T22:14:36.713Z,2.10
2023-02-13T22:17:42.879Z,2.07
2023-02-13T22:20:48.235Z,2.03
2023-02-13T22:23:58.331Z,2.05
2023-02-13T22:27:05.213Z,2.14
2023-02-13T22:30:12.551Z,2.22
2023-02-13T22:33:18.130Z,2.24
2023-02-13T22:36:25.158Z,2.29
2023-02-13T22:39:34.068Z,2.26
2023-02-13T22:42:40.294Z,2.27
2023-02-13T22:45:45.655Z,2.27
2023-02-13T22:48:52.991Z,2.14
2023-02-13T22:51:58.284Z,2.23
2023-02-13T22:55:08.044Z,2.20
2023-02-13T22:58:13.601Z,2.22
2023-02-13T23:01:22.711Z,2.22
2023-02-13T23:04:28.095Z,2.19
2023-02-13T23:07:34.663Z,2.21
2023-02-13T23:11:04.088Z,1.86
2023-02-13T23:14:10.468Z,2.22
2023-02-13T23:17:31.843Z,2.18
2023-02-13T23:20:38.861Z,2.18
2023-02-13T23:23:44.245Z,2.12
2023-02-13T23:26:53.297Z,2.11
2023-02-13T23:29:58.715Z,2.13
2023-02-13T23:33:05.417Z,2.07
2023-02-13T23:36:11.655Z,2.12
2023-02-13T23:39:17.848Z,2.11
2023-02-13T23:42:26.290Z,2.08
2023-02-13T23:45:32.696Z,2.09
2023-02-13T23:48:38.228Z,2.06
2023-02-13T23:51:44.495Z,2.05
2023-02-13T23:54:50.113Z,2.05
2023-02-13T23:57:59.119Z,2.04
